Terminal Aerodrome Forecast
Issued by NWS Cleveland, OH

Home | Current Version | Previous Version | Text Only | Print | Product List | Glossary Off
Versions: 1 2 3 4 5 6 7 8 9 10 11 12 13 14 15 16 17 18 19 20

000
FTUS41 KCLE 281139
TAFYNG
TAF
KYNG 281139Z 2812/2912 08004KT P6SM SCT070 BKN250
     FM281500 20005KT P6SM SCT050 BKN200
     FM281800 18003KT P6SM VCSH SCT060 BKN200
      TEMPO 2819/2821 -SHRA BKN060
     FM290200 VRB04KT P6SM SCT050 BKN150=

USA.gov is the U.S. government's official web portal to all federal, state and local government web resources and services.